sensor_id;sensor_type;location;lat;lon;timestamp;temperature;humidity
17442;DHT22;8838;50.144;8.176;2022-10-30T00:00:30;15.80;99.90
17442;DHT22;8838;50.144;8.176;2022-10-30T00:02:58;15.70;99.90
17442;DHT22;8838;50.144;8.176;2022-10-30T00:05:28;15.70;99.90
17442;DHT22;8838;50.144;8.176;2022-10-30T00:07:55;15.60;99.90
17442;DHT22;8838;50.144;8.176;2022-10-30T00:10:24;15.50;99.90
17442;DHT22;8838;50.144;8.176;2022-10-30T00:12:54;15.50;99.90
17442;DHT22;8838;50.144;8.176;2022-10-30T00:15:24;15.60;99.90
17442;DHT22;8838;50.144;8.176;2022-10-30T00:17:53;15.60;99.90
17442;DHT22;8838;50.144;8.176;2022-10-30T00:20:20;15.70;99.90
17442;DHT22;8838;50.144;8.176;2022-10-30T00:22:48;15.80;99.90
17442;DHT22;8838;50.144;8.176;2022-10-30T00:25:15;15.60;99.90
17442;DHT22;8838;50.144;8.176;2022-10-30T00:27:42;15.50;99.90
17442;DHT22;8838;50.144;8.176;2022-10-30T00:30:10;15.30;99.90
17442;DHT22;8838;50.144;8.176;2022-10-30T00:32:40;15.20;99.90
17442;DHT22;8838;50.144;8.176;2022-10-30T00:35:08;15.10;99.90
17442;DHT22;8838;50.144;8.176;2022-10-30T00:37:35;15.00;99.90
17442;DHT22;8838;50.144;8.176;2022-10-30T00:40:05;14.90;99.90
17442;DHT22;8838;50.144;8.176;2022-10-30T00:42:32;14.80;99.90
17442;DHT22;8838;50.144;8.176;2022-10-30T00:44:59;14.70;99.90
17442;DHT22;8838;50.144;8.176;2022-10-30T00:47:30;14.70;99.90
17442;DHT22;8838;50.144;8.176;2022-10-30T00:50:01;14.70;99.90
17442;DHT22;8838;50.144;8.176;2022-10-30T00:52:30;14.80;99.90
17442;DHT22;8838;50.144;8.176;2022-10-30T00:55:05;14.80;99.90
17442;DHT22;8838;50.144;8.176;2022-10-30T00:57:33;14.80;99.90
17442;DHT22;8838;50.144;8.176;2022-10-30T01:00:03;14.80;99.90
17442;DHT22;8838;50.144;8.176;2022-10-30T01:02:30;14.80;99.90
17442;DHT22;8838;50.144;8.176;2022-10-30T01:04:57;14.70;99.90
17442;DHT22;8838;50.144;8.176;2022-10-30T01:07:25;14.70;99.90
17442;DHT22;8838;50.144;8.176;2022-10-30T01:09:52;14.70;99.90
17442;DHT22;8838;50.144;8.176;2022-10-30T01:12:20;14.60;99.90
17442;DHT22;8838;50.144;8.176;2022-10-30T01:14:50;14.50;99.90
17442;DHT22;8838;50.144;8.176;2022-10-30T01:17:37;14.40;99.90
17442;DHT22;8838;50.144;8.176;2022-10-30T01:20:20;14.40;99.90
17442;DHT22;8838;50.144;8.176;2022-10-30T01:22:56;14.40;99.90
17442;DHT22;8838;50.144;8.176;2022-10-30T01:25:37;14.30;99.90
17442;DHT22;8838;50.144;8.176;2022-10-30T01:28:19;14.30;99.90
17442;DHT22;8838;50.144;8.176;2022-10-30T01:31:07;14.20;99.90
17442;DHT22;8838;50.144;8.176;2022-10-30T01:33:52;14.10;99.90
17442;DHT22;8838;50.144;8.176;2022-10-30T01:36:24;14.00;99.90
17442;DHT22;8838;50.144;8.176;2022-10-30T01:38:54;14.00;99.90
17442;DHT22;8838;50.144;8.176;2022-10-30T01:41:22;13.90;99.90
17442;DHT22;8838;50.144;8.176;2022-10-30T01:43:54;13.90;99.90
17442;DHT22;8838;50.144;8.176;2022-10-30T01:46:41;14.00;99.90
17442;DHT22;8838;50.144;8.176;2022-10-30T01:52:18;14.10;99.90
17442;DHT22;8838;50.144;8.176;2022-10-30T01:54:51;14.10;99.90
17442;DHT22;8838;50.144;8.176;2022-10-30T01:57:28;14.10;99.90
17442;DHT22;8838;50.144;8.176;2022-10-30T02:00:03;14.10;99.90
17442;DHT22;8838;50.144;8.176;2022-10-30T02:02:31;14.00;99.90
17442;DHT22;8838;50.144;8.176;2022-10-30T02:04:58;13.90;99.90
17442;DHT22;8838;50.144;8.176;2022-10-30T02:07:26;13.90;99.90
17442;DHT22;8838;50.144;8.176;2022-10-30T02:09:53;13.90;99.90
17442;DHT22;8838;50.144;8.176;2022-10-30T02:12:21;13.90;99.90
17442;DHT22;8838;50.144;8.176;2022-10-30T02:14:52;13.90;99.90
17442;DHT22;8838;50.144;8.176;2022-10-30T02:17:22;13.80;99.90
17442;DHT22;8838;50.144;8.176;2022-10-30T02:19:49;13.90;99.90
17442;DHT22;8838;50.144;8.176;2022-10-30T02:22:17;13.90;99.90
17442;DHT22;8838;50.144;8.176;2022-10-30T02:24:45;13.90;99.90
17442;DHT22;8838;50.144;8.176;2022-10-30T02:27:11;13.80;99.90
17442;DHT22;8838;50.144;8.176;2022-10-30T02:29:38;13.80;99.90
17442;DHT22;8838;50.144;8.176;2022-10-30T02:32:05;13.80;99.90
17442;DHT22;8838;50.144;8.176;2022-10-30T02:34:32;13.80;99.90
17442;DHT22;8838;50.144;8.176;2022-10-30T02:36:59;13.70;99.90
17442;DHT22;8838;50.144;8.176;2022-10-30T02:39:28;13.70;99.90
17442;DHT22;8838;50.144;8.176;2022-10-30T02:41:54;13.70;99.90
17442;DHT22;8838;50.144;8.176;2022-10-30T02:44:21;13.70;99.90
17442;DHT22;8838;50.144;8.176;2022-10-30T02:46:48;13.70;99.90
17442;DHT22;8838;50.144;8.176;2022-10-30T02:49:15;13.70;99.90
17442;DHT22;8838;50.144;8.176;2022-10-30T02:51:42;13.80;99.90
17442;DHT22;8838;50.144;8.176;2022-10-30T02:54:09;13.90;99.90
17442;DHT22;8838;50.144;8.176;2022-10-30T02:56:39;14.10;99.90
17442;DHT22;8838;50.144;8.176;2022-10-30T02:59:06;14.20;99.90
17442;DHT22;8838;50.144;8.176;2022-10-30T03:01:33;14.10;99.90
17442;DHT22;8838;50.144;8.176;2022-10-30T03:04:00;14.00;99.90
17442;DHT22;8838;50.144;8.176;2022-10-30T03:06:27;14.00;99.90
17442;DHT22;8838;50.144;8.176;2022-10-30T03:08:54;14.00;99.90
17442;DHT22;8838;50.144;8.176;2022-10-30T03:11:21;13.90;99.90
17442;DHT22;8838;50.144;8.176;2022-10-30T03:13:49;13.80;99.90
17442;DHT22;8838;50.144;8.176;2022-10-30T03:16:18;13.90;99.90
17442;DHT22;8838;50.144;8.176;2022-10-30T03:18:46;13.80;99.90
17442;DHT22;8838;50.144;8.176;2022-10-30T03:21:15;13.80;99.90
17442;DHT22;8838;50.144;8.176;2022-10-30T03:23:45;13.70;99.90
17442;DHT22;8838;50.144;8.176;2022-10-30T03:26:12;13.60;99.90
17442;DHT22;8838;50.144;8.176;2022-10-30T03:28:39;13.70;99.90
17442;DHT22;8838;50.144;8.176;2022-10-30T03:31:09;13.60;99.90
17442;DHT22;8838;50.144;8.176;2022-10-30T03:33:36;13.50;99.90
17442;DHT22;8838;50.144;8.176;2022-10-30T03:36:04;13.30;99.90
17442;DHT22;8838;50.144;8.176;2022-10-30T03:38:32;13.20;99.90
17442;DHT22;8838;50.144;8.176;2022-10-30T03:40:59;13.20;99.90
17442;DHT22;8838;50.144;8.176;2022-10-30T03:43:26;13.20;99.90
17442;DHT22;8838;50.144;8.176;2022-10-30T03:45:54;13.20;99.90
17442;DHT22;8838;50.144;8.176;2022-10-30T03:48:24;13.20;99.90
17442;DHT22;8838;50.144;8.176;2022-10-30T03:50:51;13.00;99.90
17442;DHT22;8838;50.144;8.176;2022-10-30T03:53:18;13.00;99.90
17442;DHT22;8838;50.144;8.176;2022-10-30T03:55:45;13.00;99.90
17442;DHT22;8838;50.144;8.176;2022-10-30T03:58:12;13.00;99.90
17442;DHT22;8838;50.144;8.176;2022-10-30T04:00:39;12.90;99.90
17442;DHT22;8838;50.144;8.176;2022-10-30T04:03:07;12.90;99.90
17442;DHT22;8838;50.144;8.176;2022-10-30T04:05:38;12.90;99.90
17442;DHT22;8838;50.144;8.176;2022-10-30T04:08:08;12.90;99.90
17442;DHT22;8838;50.144;8.176;2022-10-30T04:10:36;12.90;99.90
17442;DHT22;8838;50.144;8.176;2022-10-30T04:13:04;12.80;99.90
17442;DHT22;8838;50.144;8.176;2022-10-30T04:15:32;12.80;99.90
17442;DHT22;8838;50.144;8.176;2022-10-30T04:17:59;12.80;99.90
17442;DHT22;8838;50.144;8.176;2022-10-30T04:20:26;12.80;99.90
17442;DHT22;8838;50.144;8.176;2022-10-30T04:22:59;12.70;99.90
17442;DHT22;8838;50.144;8.176;2022-10-30T04:25:26;12.60;99.90
17442;DHT22;8838;50.144;8.176;2022-10-30T04:27:53;12.70;99.90
17442;DHT22;8838;50.144;8.176;2022-10-30T04:30:21;12.80;99.90
17442;DHT22;8838;50.144;8.176;2022-10-30T04:32:50;12.80;99.90
17442;DHT22;8838;50.144;8.176;2022-10-30T04:35:19;12.70;99.90
17442;DHT22;8838;50.144;8.176;2022-10-30T04:37:51;12.70;99.90
17442;DHT22;8838;50.144;8.176;2022-10-30T04:40:19;12.60;99.90
17442;DHT22;8838;50.144;8.176;2022-10-30T04:42:47;12.50;99.90
17442;DHT22;8838;50.144;8.176;2022-10-30T04:45:14;12.40;99.90
17442;DHT22;8838;50.144;8.176;2022-10-30T04:47:41;12.40;99.90
17442;DHT22;8838;50.144;8.176;2022-10-30T04:50:09;12.40;99.90
17442;DHT22;8838;50.144;8.176;2022-10-30T04:52:36;12.40;99.90
17442;DHT22;8838;50.144;8.176;2022-10-30T04:55:03;12.40;99.90
17442;DHT22;8838;50.144;8.176;2022-10-30T04:57:31;12.40;99.90
17442;DHT22;8838;50.144;8.176;2022-10-30T04:59:58;12.40;99.90
17442;DHT22;8838;50.144;8.176;2022-10-30T05:02:25;12.30;99.90
17442;DHT22;8838;50.144;8.176;2022-10-30T05:04:52;12.30;99.90
17442;DHT22;8838;50.144;8.176;2022-10-30T05:07:19;12.30;99.90
17442;DHT22;8838;50.144;8.176;2022-10-30T05:09:46;12.30;99.90
17442;DHT22;8838;50.144;8.176;2022-10-30T05:12:13;12.20;99.90
17442;DHT22;8838;50.144;8.176;2022-10-30T05:14:42;12.20;99.90
17442;DHT22;8838;50.144;8.176;2022-10-30T05:17:09;12.20;99.90
17442;DHT22;8838;50.144;8.176;2022-10-30T05:19:36;12.10;99.90
17442;DHT22;8838;50.144;8.176;2022-10-30T05:22:03;12.10;99.90
17442;DHT22;8838;50.144;8.176;2022-10-30T05:24:30;12.00;99.90
17442;DHT22;8838;50.144;8.176;2022-10-30T05:26:56;12.00;99.90
17442;DHT22;8838;50.144;8.176;2022-10-30T05:29:23;12.00;99.90
17442;DHT22;8838;50.144;8.176;2022-10-30T05:31:51;12.00;99.90
17442;DHT22;8838;50.144;8.176;2022-10-30T05:34:18;12.00;99.90
17442;DHT22;8838;50.144;8.176;2022-10-30T05:36:45;12.00;99.90
17442;DHT22;8838;50.144;8.176;2022-10-30T05:39:11;12.00;99.90
17442;DHT22;8838;50.144;8.176;2022-10-30T05:41:38;11.90;99.90
17442;DHT22;8838;50.144;8.176;2022-10-30T05:44:05;12.00;99.90
17442;DHT22;8838;50.144;8.176;2022-10-30T05:46:32;12.00;99.90
17442;DHT22;8838;50.144;8.176;2022-10-30T05:49:00;11.90;99.90
17442;DHT22;8838;50.144;8.176;2022-10-30T05:51:27;11.90;99.90
17442;DHT22;8838;50.144;8.176;2022-10-30T05:53:53;11.90;99.90
17442;DHT22;8838;50.144;8.176;2022-10-30T05:56:20;11.90;99.90
17442;DHT22;8838;50.144;8.176;2022-10-30T05:58:47;12.00;99.90
17442;DHT22;8838;50.144;8.176;2022-10-30T06:01:14;12.40;99.90
17442;DHT22;8838;50.144;8.176;2022-10-30T06:03:41;12.20;99.90
17442;DHT22;8838;50.144;8.176;2022-10-30T06:06:10;12.10;99.90
17442;DHT22;8838;50.144;8.176;2022-10-30T06:08:37;12.00;99.90
17442;DHT22;8838;50.144;8.176;2022-10-30T06:11:03;11.90;99.90
17442;DHT22;8838;50.144;8.176;2022-10-30T06:13:30;11.80;99.90
17442;DHT22;8838;50.144;8.176;2022-10-30T06:15:57;11.80;99.90
17442;DHT22;8838;50.144;8.176;2022-10-30T06:18:24;11.70;99.90
17442;DHT22;8838;50.144;8.176;2022-10-30T06:20:51;11.70;99.90
17442;DHT22;8838;50.144;8.176;2022-10-30T06:23:21;11.70;99.90
17442;DHT22;8838;50.144;8.176;2022-10-30T06:25:47;11.70;99.90
17442;DHT22;8838;50.144;8.176;2022-10-30T06:28:14;11.70;99.90
17442;DHT22;8838;50.144;8.176;2022-10-30T06:30:41;11.70;99.90
17442;DHT22;8838;50.144;8.176;2022-10-30T06:33:08;11.70;99.90
17442;DHT22;8838;50.144;8.176;2022-10-30T06:35:35;11.80;99.90
17442;DHT22;8838;50.144;8.176;2022-10-30T06:38:02;11.80;99.90
17442;DHT22;8838;50.144;8.176;2022-10-30T06:40:30;11.80;99.90
17442;DHT22;8838;50.144;8.176;2022-10-30T06:42:58;11.70;99.90
17442;DHT22;8838;50.144;8.176;2022-10-30T06:45:25;11.60;99.90
17442;DHT22;8838;50.144;8.176;2022-10-30T06:47:52;11.60;99.90
17442;DHT22;8838;50.144;8.176;2022-10-30T06:50:21;11.50;99.90
17442;DHT22;8838;50.144;8.176;2022-10-30T06:52:49;11.40;99.90
17442;DHT22;8838;50.144;8.176;2022-10-30T06:55:16;11.50;99.90
17442;DHT22;8838;50.144;8.176;2022-10-30T06:57:44;11.60;99.90
17442;DHT22;8838;50.144;8.176;2022-10-30T07:00:12;11.70;99.90
17442;DHT22;8838;50.144;8.176;2022-10-30T07:02:39;11.70;99.90
17442;DHT22;8838;50.144;8.176;2022-10-30T07:05:06;11.80;99.90
17442;DHT22;8838;50.144;8.176;2022-10-30T07:07:33;11.90;99.90
17442;DHT22;8838;50.144;8.176;2022-10-30T07:10:00;12.00;99.90
17442;DHT22;8838;50.144;8.176;2022-10-30T07:12:30;12.10;99.90
17442;DHT22;8838;50.144;8.176;2022-10-30T07:14:59;12.10;99.90
17442;DHT22;8838;50.144;8.176;2022-10-30T07:17:25;12.20;99.90
17442;DHT22;8838;50.144;8.176;2022-10-30T07:19:52;12.20;99.90
17442;DHT22;8838;50.144;8.176;2022-10-30T07:22:19;12.30;99.90
17442;DHT22;8838;50.144;8.176;2022-10-30T07:24:46;12.30;99.90
17442;DHT22;8838;50.144;8.176;2022-10-30T07:27:14;12.40;99.90
17442;DHT22;8838;50.144;8.176;2022-10-30T07:29:41;12.40;99.90
17442;DHT22;8838;50.144;8.176;2022-10-30T07:32:12;12.50;99.90
17442;DHT22;8838;50.144;8.176;2022-10-30T07:34:39;12.60;99.90
17442;DHT22;8838;50.144;8.176;2022-10-30T07:37:06;12.80;99.90
17442;DHT22;8838;50.144;8.176;2022-10-30T07:39:32;13.00;99.90
17442;DHT22;8838;50.144;8.176;2022-10-30T07:41:59;13.10;99.90
17442;DHT22;8838;50.144;8.176;2022-10-30T07:44:26;13.10;99.90
17442;DHT22;8838;50.144;8.176;2022-10-30T07:46:53;13.20;99.90
17442;DHT22;8838;50.144;8.176;2022-10-30T07:49:21;13.30;99.90
17442;DHT22;8838;50.144;8.176;2022-10-30T07:51:48;13.30;99.90
17442;DHT22;8838;50.144;8.176;2022-10-30T07:54:15;13.50;99.90
17442;DHT22;8838;50.144;8.176;2022-10-30T07:56:42;13.70;99.90
17442;DHT22;8838;50.144;8.176;2022-10-30T07:59:09;14.00;99.90
17442;DHT22;8838;50.144;8.176;2022-10-30T08:01:36;14.20;99.90
17442;DHT22;8838;50.144;8.176;2022-10-30T08:04:03;14.80;99.90
17442;DHT22;8838;50.144;8.176;2022-10-30T08:06:31;14.90;99.90
17442;DHT22;8838;50.144;8.176;2022-10-30T08:08:58;15.00;99.90
17442;DHT22;8838;50.144;8.176;2022-10-30T08:11:25;15.20;99.90
17442;DHT22;8838;50.144;8.176;2022-10-30T08:13:52;15.40;99.90
17442;DHT22;8838;50.144;8.176;2022-10-30T08:16:19;15.60;99.90
17442;DHT22;8838;50.144;8.176;2022-10-30T08:18:46;15.80;99.90
17442;DHT22;8838;50.144;8.176;2022-10-30T08:21:13;16.10;99.90
17442;DHT22;8838;50.144;8.176;2022-10-30T08:23:41;17.20;99.90
17442;DHT22;8838;50.144;8.176;2022-10-30T08:26:08;18.40;99.90
17442;DHT22;8838;50.144;8.176;2022-10-30T08:28:35;19.60;99.90
17442;DHT22;8838;50.144;8.176;2022-10-30T08:31:02;20.70;99.90
17442;DHT22;8838;50.144;8.176;2022-10-30T08:33:30;21.50;99.90
17442;DHT22;8838;50.144;8.176;2022-10-30T08:35:59;21.90;99.90
17442;DHT22;8838;50.144;8.176;2022-10-30T08:38:27;22.10;99.90
17442;DHT22;8838;50.144;8.176;2022-10-30T08:40:55;21.80;99.90
17442;DHT22;8838;50.144;8.176;2022-10-30T08:43:22;22.20;99.90
17442;DHT22;8838;50.144;8.176;2022-10-30T08:45:49;22.30;99.90
17442;DHT22;8838;50.144;8.176;2022-10-30T08:48:16;22.20;99.90
17442;DHT22;8838;50.144;8.176;2022-10-30T08:50:43;21.80;99.90
17442;DHT22;8838;50.144;8.176;2022-10-30T08:53:12;21.70;99.90
17442;DHT22;8838;50.144;8.176;2022-10-30T08:55:40;22.30;99.90
17442;DHT22;8838;50.144;8.176;2022-10-30T08:58:08;22.80;99.90
17442;DHT22;8838;50.144;8.176;2022-10-30T09:00:35;22.90;99.90
17442;DHT22;8838;50.144;8.176;2022-10-30T09:03:02;23.20;99.90
17442;DHT22;8838;50.144;8.176;2022-10-30T09:05:30;23.90;99.90
17442;DHT22;8838;50.144;8.176;2022-10-30T09:07:57;23.90;99.90
17442;DHT22;8838;50.144;8.176;2022-10-30T09:10:25;24.10;99.90
17442;DHT22;8838;50.144;8.176;2022-10-30T09:12:55;23.80;99.90
17442;DHT22;8838;50.144;8.176;2022-10-30T09:15:23;23.80;99.90
17442;DHT22;8838;50.144;8.176;2022-10-30T09:17:55;23.40;99.90
17442;DHT22;8838;50.144;8.176;2022-10-30T09:20:22;23.60;99.90
17442;DHT22;8838;50.144;8.176;2022-10-30T09:22:49;24.10;99.90
17442;DHT22;8838;50.144;8.176;2022-10-30T09:25:16;24.20;99.90
17442;DHT22;8838;50.144;8.176;2022-10-30T09:27:45;24.20;99.90
17442;DHT22;8838;50.144;8.176;2022-10-30T09:30:13;24.70;99.90
17442;DHT22;8838;50.144;8.176;2022-10-30T09:32:41;25.00;99.90
17442;DHT22;8838;50.144;8.176;2022-10-30T09:35:08;25.40;99.90
17442;DHT22;8838;50.144;8.176;2022-10-30T09:37:35;25.60;99.90
17442;DHT22;8838;50.144;8.176;2022-10-30T09:40:03;25.50;99.90
17442;DHT22;8838;50.144;8.176;2022-10-30T09:42:41;25.20;99.90
17442;DHT22;8838;50.144;8.176;2022-10-30T09:48:43;25.00;99.90
17442;DHT22;8838;50.144;8.176;2022-10-30T09:51:27;24.80;99.90
17442;DHT22;8838;50.144;8.176;2022-10-30T09:54:06;24.50;99.90
17442;DHT22;8838;50.144;8.176;2022-10-30T09:56:41;24.30;99.90
17442;DHT22;8838;50.144;8.176;2022-10-30T09:59:20;24.80;99.90
17442;DHT22;8838;50.144;8.176;2022-10-30T10:01:54;24.60;99.90
17442;DHT22;8838;50.144;8.176;2022-10-30T10:04:37;23.80;99.90
17442;DHT22;8838;50.144;8.176;2022-10-30T10:07:09;23.20;99.90
17442;DHT22;8838;50.144;8.176;2022-10-30T10:09:39;22.30;99.90
17442;DHT22;8838;50.144;8.176;2022-10-30T10:12:09;22.10;99.90
17442;DHT22;8838;50.144;8.176;2022-10-30T10:14:41;21.90;99.90
17442;DHT22;8838;50.144;8.176;2022-10-30T10:17:12;21.80;99.90
17442;DHT22;8838;50.144;8.176;2022-10-30T10:19:48;21.80;99.90
17442;DHT22;8838;50.144;8.176;2022-10-30T10:22:19;21.70;99.90
17442;DHT22;8838;50.144;8.176;2022-10-30T10:24:46;21.90;99.90
17442;DHT22;8838;50.144;8.176;2022-10-30T10:27:20;22.10;99.90
17442;DHT22;8838;50.144;8.176;2022-10-30T10:29:57;22.50;99.90
17442;DHT22;8838;50.144;8.176;2022-10-30T10:32:51;22.10;99.90
17442;DHT22;8838;50.144;8.176;2022-10-30T10:35:41;21.80;99.90
17442;DHT22;8838;50.144;8.176;2022-10-30T10:38:21;21.20;99.90
17442;DHT22;8838;50.144;8.176;2022-10-30T10:40:55;21.20;99.90
17442;DHT22;8838;50.144;8.176;2022-10-30T10:43:35;21.10;99.90
17442;DHT22;8838;50.144;8.176;2022-10-30T10:46:22;20.90;99.90
17442;DHT22;8838;50.144;8.176;2022-10-30T10:49:03;20.80;99.90
17442;DHT22;8838;50.144;8.176;2022-10-30T10:51:38;20.30;99.90
17442;DHT22;8838;50.144;8.176;2022-10-30T10:54:10;19.90;99.90
17442;DHT22;8838;50.144;8.176;2022-10-30T10:56:39;19.70;99.90
17442;DHT22;8838;50.144;8.176;2022-10-30T10:59:13;19.40;99.90
17442;DHT22;8838;50.144;8.176;2022-10-30T11:01:48;19.30;99.90
17442;DHT22;8838;50.144;8.176;2022-10-30T11:04:23;19.20;99.90
17442;DHT22;8838;50.144;8.176;2022-10-30T11:06:54;19.20;99.90
17442;DHT22;8838;50.144;8.176;2022-10-30T11:09:22;19.20;99.90
17442;DHT22;8838;50.144;8.176;2022-10-30T11:11:52;19.20;99.90
17442;DHT22;8838;50.144;8.176;2022-10-30T11:14:22;19.20;99.90
17442;DHT22;8838;50.144;8.176;2022-10-30T11:16:59;19.10;99.90
17442;DHT22;8838;50.144;8.176;2022-10-30T11:19:28;19.00;99.90
17442;DHT22;8838;50.144;8.176;2022-10-30T11:21:57;19.00;99.90
17442;DHT22;8838;50.144;8.176;2022-10-30T11:24:27;19.10;99.90
17442;DHT22;8838;50.144;8.176;2022-10-30T11:26:55;19.10;99.90
17442;DHT22;8838;50.144;8.176;2022-10-30T11:29:26;19.00;99.90
17442;DHT22;8838;50.144;8.176;2022-10-30T11:32:03;19.00;99.90
17442;DHT22;8838;50.144;8.176;2022-10-30T11:34:32;19.00;99.90
17442;DHT22;8838;50.144;8.176;2022-10-30T11:37:02;19.10;99.90
17442;DHT22;8838;50.144;8.176;2022-10-30T11:39:30;19.10;99.90
17442;DHT22;8838;50.144;8.176;2022-10-30T11:42:01;19.10;99.90
17442;DHT22;8838;50.144;8.176;2022-10-30T11:44:32;19.10;99.90
17442;DHT22;8838;50.144;8.176;2022-10-30T11:47:01;19.20;99.90
17442;DHT22;8838;50.144;8.176;2022-10-30T11:49:39;19.20;99.90
17442;DHT22;8838;50.144;8.176;2022-10-30T11:52:11;19.20;99.90
17442;DHT22;8838;50.144;8.176;2022-10-30T11:54:43;19.20;99.90
17442;DHT22;8838;50.144;8.176;2022-10-30T11:57:18;19.30;99.90
17442;DHT22;8838;50.144;8.176;2022-10-30T11:59:46;19.30;99.90
17442;DHT22;8838;50.144;8.176;2022-10-30T12:02:21;19.30;99.90
17442;DHT22;8838;50.144;8.176;2022-10-30T12:04:51;19.40;99.90
17442;DHT22;8838;50.144;8.176;2022-10-30T12:07:25;19.50;99.90
17442;DHT22;8838;50.144;8.176;2022-10-30T12:09:52;19.60;99.90
17442;DHT22;8838;50.144;8.176;2022-10-30T12:12:22;19.60;99.90
17442;DHT22;8838;50.144;8.176;2022-10-30T12:14:52;19.70;99.90
17442;DHT22;8838;50.144;8.176;2022-10-30T12:17:19;19.80;99.90
17442;DHT22;8838;50.144;8.176;2022-10-30T12:19:49;19.70;99.90
17442;DHT22;8838;50.144;8.176;2022-10-30T12:22:28;19.80;99.90
17442;DHT22;8838;50.144;8.176;2022-10-30T12:24:56;19.80;99.90
17442;DHT22;8838;50.144;8.176;2022-10-30T12:27:23;19.80;99.90
17442;DHT22;8838;50.144;8.176;2022-10-30T12:30:02;19.80;99.90
17442;DHT22;8838;50.144;8.176;2022-10-30T12:32:37;19.80;99.90
17442;DHT22;8838;50.144;8.176;2022-10-30T12:35:14;19.80;99.90
17442;DHT22;8838;50.144;8.176;2022-10-30T12:37:44;19.80;99.90
17442;DHT22;8838;50.144;8.176;2022-10-30T12:40:15;19.80;99.90
17442;DHT22;8838;50.144;8.176;2022-10-30T12:42:47;19.80;99.90
17442;DHT22;8838;50.144;8.176;2022-10-30T12:45:19;19.80;99.90
17442;DHT22;8838;50.144;8.176;2022-10-30T12:47:50;19.80;99.90
17442;DHT22;8838;50.144;8.176;2022-10-30T12:50:22;19.80;99.90
17442;DHT22;8838;50.144;8.176;2022-10-30T12:52:56;19.90;99.90
17442;DHT22;8838;50.144;8.176;2022-10-30T12:55:27;19.90;99.90
17442;DHT22;8838;50.144;8.176;2022-10-30T12:58:02;19.80;99.90
17442;DHT22;8838;50.144;8.176;2022-10-30T13:00:37;19.90;99.90
17442;DHT22;8838;50.144;8.176;2022-10-30T13:03:19;19.90;99.90
17442;DHT22;8838;50.144;8.176;2022-10-30T13:05:51;19.90;99.90
17442;DHT22;8838;50.144;8.176;2022-10-30T13:08:24;19.90;99.90
17442;DHT22;8838;50.144;8.176;2022-10-30T13:10:58;19.90;99.90
17442;DHT22;8838;50.144;8.176;2022-10-30T13:13:31;20.00;99.90
17442;DHT22;8838;50.144;8.176;2022-10-30T13:16:02;19.90;99.90
17442;DHT22;8838;50.144;8.176;2022-10-30T13:18:33;19.90;99.90
17442;DHT22;8838;50.144;8.176;2022-10-30T13:21:18;19.90;99.90
17442;DHT22;8838;50.144;8.176;2022-10-30T13:23:51;19.80;99.90
17442;DHT22;8838;50.144;8.176;2022-10-30T13:26:26;19.80;99.90
17442;DHT22;8838;50.144;8.176;2022-10-30T13:29:03;19.80;99.90
17442;DHT22;8838;50.144;8.176;2022-10-30T13:31:36;19.80;99.90
17442;DHT22;8838;50.144;8.176;2022-10-30T13:34:19;19.70;99.90
17442;DHT22;8838;50.144;8.176;2022-10-30T13:36:53;19.60;99.90
17442;DHT22;8838;50.144;8.176;2022-10-30T13:39:28;19.60;99.90
17442;DHT22;8838;50.144;8.176;2022-10-30T13:42:05;19.60;99.90
17442;DHT22;8838;50.144;8.176;2022-10-30T13:44:43;19.60;99.90
17442;DHT22;8838;50.144;8.176;2022-10-30T13:47:19;19.60;99.90
17442;DHT22;8838;50.144;8.176;2022-10-30T13:50:01;19.60;99.90
17442;DHT22;8838;50.144;8.176;2022-10-30T13:52:32;19.60;99.90
17442;DHT22;8838;50.144;8.176;2022-10-30T13:55:05;19.60;99.90
17442;DHT22;8838;50.144;8.176;2022-10-30T13:57:38;19.60;99.90
17442;DHT22;8838;50.144;8.176;2022-10-30T14:00:13;19.50;99.90
17442;DHT22;8838;50.144;8.176;2022-10-30T14:02:53;19.60;99.90
17442;DHT22;8838;50.144;8.176;2022-10-30T14:05:36;19.50;99.90
17442;DHT22;8838;50.144;8.176;2022-10-30T14:08:09;19.50;99.90
17442;DHT22;8838;50.144;8.176;2022-10-30T14:10:45;19.50;99.90
17442;DHT22;8838;50.144;8.176;2022-10-30T14:13:16;19.30;99.90
17442;DHT22;8838;50.144;8.176;2022-10-30T14:15:46;19.30;99.90
17442;DHT22;8838;50.144;8.176;2022-10-30T14:18:42;19.20;99.90
17442;DHT22;8838;50.144;8.176;2022-10-30T14:21:35;19.10;99.90
17442;DHT22;8838;50.144;8.176;2022-10-30T14:24:08;19.10;99.90
17442;DHT22;8838;50.144;8.176;2022-10-30T14:26:38;18.90;99.90
17442;DHT22;8838;50.144;8.176;2022-10-30T14:32:40;18.90;99.90
17442;DHT22;8838;50.144;8.176;2022-10-30T14:35:27;18.80;99.90
17442;DHT22;8838;50.144;8.176;2022-10-30T14:37:56;18.70;99.90
17442;DHT22;8838;50.144;8.176;2022-10-30T14:40:33;18.70;99.90
17442;DHT22;8838;50.144;8.176;2022-10-30T14:43:07;18.60;99.90
17442;DHT22;8838;50.144;8.176;2022-10-30T14:45:42;18.60;99.90
17442;DHT22;8838;50.144;8.176;2022-10-30T14:48:15;18.50;99.90
17442;DHT22;8838;50.144;8.176;2022-10-30T14:50:54;18.50;99.90
17442;DHT22;8838;50.144;8.176;2022-10-30T14:53:38;18.40;99.90
17442;DHT22;8838;50.144;8.176;2022-10-30T14:56:18;18.40;99.90
17442;DHT22;8838;50.144;8.176;2022-10-30T14:59:16;18.40;99.90
17442;DHT22;8838;50.144;8.176;2022-10-30T15:01:49;18.30;99.90
17442;DHT22;8838;50.144;8.176;2022-10-30T15:04:22;18.20;99.90
17442;DHT22;8838;50.144;8.176;2022-10-30T15:06:57;18.20;99.90
17442;DHT22;8838;50.144;8.176;2022-10-30T15:09:40;18.10;99.90
17442;DHT22;8838;50.144;8.176;2022-10-30T15:12:30;18.10;99.90
17442;DHT22;8838;50.144;8.176;2022-10-30T15:15:03;18.10;99.90
17442;DHT22;8838;50.144;8.176;2022-10-30T15:17:34;18.00;99.90
17442;DHT22;8838;50.144;8.176;2022-10-30T15:20:05;18.00;99.90
17442;DHT22;8838;50.144;8.176;2022-10-30T15:22:34;17.90;99.90
17442;DHT22;8838;50.144;8.176;2022-10-30T15:25:02;17.90;99.90
17442;DHT22;8838;50.144;8.176;2022-10-30T15:27:31;17.80;99.90
17442;DHT22;8838;50.144;8.176;2022-10-30T15:30:03;17.80;99.90
17442;DHT22;8838;50.144;8.176;2022-10-30T15:32:30;17.70;99.90
17442;DHT22;8838;50.144;8.176;2022-10-30T15:35:00;17.70;99.90
17442;DHT22;8838;50.144;8.176;2022-10-30T15:37:28;17.60;99.90
17442;DHT22;8838;50.144;8.176;2022-10-30T15:40:16;17.50;99.90
17442;DHT22;8838;50.144;8.176;2022-10-30T15:42:44;17.50;99.90
17442;DHT22;8838;50.144;8.176;2022-10-30T15:45:18;17.40;99.90
17442;DHT22;8838;50.144;8.176;2022-10-30T15:47:47;17.30;99.90
17442;DHT22;8838;50.144;8.176;2022-10-30T15:50:17;17.20;99.90
17442;DHT22;8838;50.144;8.176;2022-10-30T15:52:46;17.10;99.90
17442;DHT22;8838;50.144;8.176;2022-10-30T15:55:15;17.00;99.90
17442;DHT22;8838;50.144;8.176;2022-10-30T15:57:44;16.90;99.90
17442;DHT22;8838;50.144;8.176;2022-10-30T16:00:22;16.80;99.90
17442;DHT22;8838;50.144;8.176;2022-10-30T16:02:58;16.60;99.90
17442;DHT22;8838;50.144;8.176;2022-10-30T16:05:26;16.60;99.90
17442;DHT22;8838;50.144;8.176;2022-10-30T16:07:54;16.50;99.90
17442;DHT22;8838;50.144;8.176;2022-10-30T16:10:25;16.50;99.90
17442;DHT22;8838;50.144;8.176;2022-10-30T16:12:56;16.50;99.90
17442;DHT22;8838;50.144;8.176;2022-10-30T16:15:27;16.50;99.90